Time;durP1;ratioP1;P1;durP2;ratioP2;P2;SDS_P1;SDS_P2;PMS_P1;PMS_P2;Temp;Humidity;BMP_temperature;BMP_pressure;BME280_temperature;BME280_humidity;BME280_pressure;Samples;Min_cycle;Max_cycle;Signal;HPM_P1;HPM_P2
2023/04/15 00:01:22;;;;;;;;;;;;;;;7.70;76.42;97998.44;4992146;28;19917;-80
2023/04/15 00:03:49;;;;;;;;;;;;;;;7.79;76.63;98001.44;4988985;28;19922;-80
2023/04/15 00:06:15;;;;;;;;;;;;;;;7.72;76.67;98003.50;5003811;28;20056;-80
2023/04/15 00:08:40;;;;;;;;;;;;;;;7.81;75.61;98004.66;4997800;28;19972;-80
2023/04/15 00:11:06;;;;;;;;;;;;;;;7.76;76.62;97997.44;4990105;28;19924;-80
2023/04/15 00:13:34;;;;;;;;;;;;;;;7.76;75.53;98000.09;4990373;28;20275;-80
2023/04/15 00:15:59;;;;;;;;;;;;;;;7.66;76.60;97994.69;4985724;28;19925;-80
2023/04/15 00:18:25;;;;;;;;;;;;;;;7.48;76.93;98003.00;4989563;28;19930;-80
2023/04/15 00:20:51;;;;;;;;;;;;;;;7.62;76.36;97990.13;4988023;28;20309;-80
2023/04/15 00:23:16;;;;;;;;;;;;;;;7.63;76.09;97989.06;4989060;28;20005;-81
2023/04/15 00:25:42;;;;;;;;;;;;;;;7.56;77.05;97984.75;4971976;28;20032;-80
2023/04/15 00:28:07;;;;;;;;;;;;;;;7.67;75.85;97984.84;4989884;28;19922;-80
2023/04/15 00:30:32;;;;;;;;;;;;;;;7.60;76.35;97979.72;4990685;28;20016;-81
2023/04/15 00:32:57;;;;;;;;;;;;;;;7.66;75.99;97983.25;4988983;28;20305;-80
2023/04/15 00:35:23;;;;;;;;;;;;;;;7.57;76.32;97973.09;4973448;28;19952;-80
2023/04/15 00:37:48;;;;;;;;;;;;;;;7.58;76.66;97974.69;4973466;28;20309;-80
2023/04/15 00:40:16;;;;;;;;;;;;;;;7.67;76.37;97971.56;4989069;28;19921;-80
2023/04/15 00:42:41;;;;;;;;;;;;;;;7.63;76.60;97976.59;4988232;28;20027;-80
2023/04/15 00:45:07;;;;;;;;;;;;;;;7.58;76.48;97976.53;4984678;28;20004;-80
2023/04/15 00:47:32;;;;;;;;;;;;;;;7.56;77.01;97963.50;4989656;28;20408;-80
2023/04/15 00:49:58;;;;;;;;;;;;;;;7.55;77.38;97969.91;4989028;28;20008;-80
2023/04/15 00:52:23;;;;;;;;;;;;;;;7.72;76.42;97968.97;4988960;28;19930;-80
2023/04/15 00:54:50;;;;;;;;;;;;;;;7.75;76.58;97971.94;4988366;28;19922;-80
2023/04/15 00:57:15;;;;;;;;;;;;;;;7.76;76.01;97962.91;4987666;28;19941;-80
2023/04/15 00:59:40;;;;;;;;;;;;;;;7.72;76.92;97968.97;4987398;28;20258;-80
2023/04/15 01:02:06;;;;;;;;;;;;;;;7.63;76.89;97968.63;4983532;28;20374;-80
2023/04/15 01:04:31;;;;;;;;;;;;;;;7.71;76.93;97968.16;4983425;28;19933;-81
2023/04/15 01:06:56;;;;;;;;;;;;;;;7.55;77.83;97963.78;4990307;28;20448;-80
2023/04/15 01:09:21;;;;;;;;;;;;;;;7.45;77.61;97964.47;4986495;28;19922;-80
2023/04/15 01:11:47;;;;;;;;;;;;;;;7.42;78.00;97964.97;4992489;28;19933;-80
2023/04/15 01:14:12;;;;;;;;;;;;;;;7.26;78.39;97960.53;4989687;28;20012;-80
2023/04/15 01:16:38;;;;;;;;;;;;;;;7.45;77.51;97963.66;4972172;28;19929;-80
2023/04/15 01:19:06;;;;;;;;;;;;;;;7.41;77.69;97968.66;4985384;28;20393;-80
2023/04/15 01:21:32;;;;;;;;;;;;;;;7.37;79.00;97961.44;4990213;28;19918;-80
2023/04/15 01:23:57;;;;;;;;;;;;;;;7.51;77.92;97962.69;4989085;28;19926;-80
2023/04/15 01:26:23;;;;;;;;;;;;;;;7.41;78.16;97962.56;4972565;28;20127;-80
2023/04/15 01:28:49;;;;;;;;;;;;;;;7.19;79.31;97954.63;4986929;28;19930;-80
2023/04/15 01:31:14;;;;;;;;;;;;;;;7.01;80.61;97965.53;4982465;28;19937;-80
2023/04/15 01:33:41;;;;;;;;;;;;;;;7.25;80.72;97963.47;4969887;28;20317;-80
2023/04/15 01:36:09;;;;;;;;;;;;;;;7.34;80.02;97964.59;4986067;28;19954;-80
2023/04/15 01:38:35;;;;;;;;;;;;;;;7.11;80.60;97964.88;4987429;28;19941;-80
2023/04/15 01:41:01;;;;;;;;;;;;;;;7.62;78.86;97947.63;4987702;28;19918;-81
2023/04/15 01:43:27;;;;;;;;;;;;;;;7.65;78.41;97955.09;4987784;28;20000;-81
2023/04/15 01:45:52;;;;;;;;;;;;;;;7.32;78.39;97956.06;4989979;28;19928;-80
2023/04/15 01:48:17;;;;;;;;;;;;;;;7.53;77.75;97957.91;4987137;28;20857;-80
2023/04/15 01:50:43;;;;;;;;;;;;;;;7.47;77.47;97948.28;4968881;28;20405;-80
2023/04/15 01:53:08;;;;;;;;;;;;;;;7.58;78.21;97947.31;4989000;28;19918;-80
2023/04/15 01:55:33;;;;;;;;;;;;;;;7.75;77.90;97945.38;4986055;28;20466;-80
2023/04/15 01:57:58;;;;;;;;;;;;;;;7.51;78.82;97952.06;4991996;28;20301;-80
2023/04/15 02:00:24;;;;;;;;;;;;;;;7.39;77.83;97943.41;4971290;28;19922;-80
2023/04/15 02:02:49;;;;;;;;;;;;;;;7.68;77.84;97936.81;4985272;28;19926;-80
2023/04/15 02:05:15;;;;;;;;;;;;;;;7.55;77.64;97937.22;4987233;28;19922;-80
2023/04/15 02:07:41;;;;;;;;;;;;;;;7.49;78.30;97943.53;4996463;28;20234;-80
2023/04/15 02:10:06;;;;;;;;;;;;;;;7.50;78.16;97939.81;4977849;28;19965;-80
2023/04/15 02:12:31;;;;;;;;;;;;;;;7.32;78.89;97948.13;4978277;28;19999;-80
2023/04/15 02:14:57;;;;;;;;;;;;;;;7.23;79.17;97945.09;4983403;28;19922;-79
2023/04/15 02:17:22;;;;;;;;;;;;;;;7.53;77.81;97947.28;4990600;28;20400;-80
2023/04/15 02:19:48;;;;;;;;;;;;;;;7.49;78.71;97946.97;4991771;28;20412;-80
2023/04/15 02:22:17;;;;;;;;;;;;;;;6.94;79.89;97950.88;4993060;28;19933;-80
2023/04/15 02:24:42;;;;;;;;;;;;;;;6.96;79.83;97956.72;4993694;28;19922;-80
2023/04/15 02:27:08;;;;;;;;;;;;;;;6.61;80.93;97949.94;4995515;28;20698;-80
2023/04/15 02:29:33;;;;;;;;;;;;;;;7.12;80.11;97953.22;4980676;28;19930;-80
2023/04/15 02:31:58;;;;;;;;;;;;;;;7.21;79.89;97955.16;4997161;28;19922;-80
2023/04/15 02:34:23;;;;;;;;;;;;;;;7.38;79.01;97947.16;4996707;28;19926;-80
2023/04/15 02:36:53;;;;;;;;;;;;;;;7.39;78.42;97952.19;4994526;28;20052;-80
2023/04/15 02:39:18;;;;;;;;;;;;;;;7.37;78.88;97954.28;4997186;28;19921;-81
2023/04/15 02:41:46;;;;;;;;;;;;;;;7.60;78.12;97963.03;4991543;28;19933;-80
2023/04/15 02:44:11;;;;;;;;;;;;;;;7.63;77.87;97944.72;4992314;28;19925;-80
2023/04/15 02:46:37;;;;;;;;;;;;;;;7.45;78.01;97958.34;4977996;28;20377;-80
2023/04/15 02:49:02;;;;;;;;;;;;;;;7.33;78.77;97955.84;4991989;28;19922;-80
2023/04/15 02:51:30;;;;;;;;;;;;;;;7.52;78.85;97961.59;4991321;28;20421;-80
2023/04/15 02:53:55;;;;;;;;;;;;;;;7.56;77.92;97965.38;4994110;28;20020;-80
2023/04/15 02:56:22;;;;;;;;;;;;;;;7.56;78.58;97957.41;4976484;28;20085;-80
2023/04/15 02:58:49;;;;;;;;;;;;;;;7.02;78.88;97959.19;4994825;28;20498;-80
2023/04/15 03:01:14;;;;;;;;;;;;;;;7.09;79.89;97964.31;4976587;28;19936;-80
2023/04/15 03:03:40;;;;;;;;;;;;;;;7.39;80.00;97967.31;4991018;28;20374;-80
2023/04/15 03:06:05;;;;;;;;;;;;;;;7.38;78.89;97966.50;4991359;28;19926;-80
2023/04/15 03:08:31;;;;;;;;;;;;;;;7.38;79.41;97966.50;4987566;28;20029;-80
2023/04/15 03:10:59;;;;;;;;;;;;;;;7.40;78.19;97971.59;4975426;28;20293;-80
2023/04/15 03:13:24;;;;;;;;;;;;;;;7.44;78.17;97965.53;4995790;28;19925;-80
2023/04/15 03:15:50;;;;;;;;;;;;;;;7.12;79.58;97955.88;4992210;28;20086;-80
2023/04/15 03:18:15;;;;;;;;;;;;;;;7.51;78.84;97952.84;4990044;28;19932;-80
2023/04/15 03:20:40;;;;;;;;;;;;;;;7.73;78.41;97952.00;4990160;28;19968;-81
2023/04/15 03:23:06;;;;;;;;;;;;;;;7.67;77.89;97960.94;4996291;28;19932;-80
2023/04/15 03:25:31;;;;;;;;;;;;;;;7.74;77.28;97953.59;4990466;28;20016;-80
2023/04/15 03:27:57;;;;;;;;;;;;;;;7.40;79.52;97959.09;4990542;28;20355;-80
2023/04/15 03:30:22;;;;;;;;;;;;;;;7.68;78.07;97952.75;4974640;28;19928;-80
2023/04/15 03:32:47;;;;;;;;;;;;;;;7.12;79.19;97945.25;4976901;28;20316;-80
2023/04/15 03:35:12;;;;;;;;;;;;;;;6.94;79.71;97951.69;4990849;28;19976;-80
2023/04/15 03:37:38;;;;;;;;;;;;;;;7.10;80.98;97950.03;4991017;28;19929;-80
2023/04/15 03:40:03;;;;;;;;;;;;;;;6.54;81.42;97953.78;4971837;28;19926;-80
2023/04/15 03:42:28;;;;;;;;;;;;;;;6.73;81.30;97950.63;4989879;28;19973;-80
2023/04/15 03:44:53;;;;;;;;;;;;;;;6.88;81.58;97954.53;4992602;28;19930;-80
2023/04/15 03:47:19;;;;;;;;;;;;;;;6.73;80.85;97957.75;4987247;28;19929;-80
2023/04/15 03:49:44;;;;;;;;;;;;;;;6.35;83.20;97955.13;4977803;28;20408;-80
2023/04/15 03:52:09;;;;;;;;;;;;;;;6.55;83.21;97958.84;4972817;28;21697;-80
2023/04/15 03:54:34;;;;;;;;;;;;;;;6.28;83.09;97967.72;4971180;28;20377;-80
2023/04/15 03:57:00;;;;;;;;;;;;;;;6.65;82.64;97960.84;4984855;28;20386;-80
2023/04/15 03:59:25;;;;;;;;;;;;;;;6.82;81.53;97966.91;4973709;28;19957;-80
2023/04/15 04:01:51;;;;;;;;;;;;;;;6.11;84.25;97966.94;4983209;28;19925;-80
2023/04/15 04:04:16;;;;;;;;;;;;;;;6.59;82.68;97965.28;4988909;28;19933;-80
2023/04/15 04:06:41;;;;;;;;;;;;;;;6.53;82.71;97958.28;4988115;28;20037;-80
2023/04/15 04:09:06;;;;;;;;;;;;;;;6.39;83.60;97959.69;4986918;28;19929;-80
2023/04/15 04:11:32;;;;;;;;;;;;;;;6.03;84.47;97968.94;4976904;28;19925;-80
2023/04/15 04:13:57;;;;;;;;;;;;;;;6.69;83.09;97960.09;4990650;28;19931;-80
2023/04/15 04:16:22;;;;;;;;;;;;;;;6.17;85.08;97960.66;4974513;28;19930;-80
2023/04/15 04:18:47;;;;;;;;;;;;;;;5.77;84.85;97968.72;4972622;28;19929;-80
2023/04/15 04:21:13;;;;;;;;;;;;;;;5.70;85.31;97968.88;4986032;28;19926;-80
2023/04/15 04:23:38;;;;;;;;;;;;;;;5.42;87.37;97968.91;4971631;28;20262;-80
2023/04/15 04:26:03;;;;;;;;;;;;;;;6.14;85.87;97969.13;4990950;28;20033;-80
2023/04/15 04:28:28;;;;;;;;;;;;;;;5.95;84.28;97957.94;4987203;28;19926;-80
2023/04/15 04:30:54;;;;;;;;;;;;;;;6.64;83.31;97960.03;4970526;28;20313;-80
2023/04/15 04:33:20;;;;;;;;;;;;;;;6.21;83.40;97959.94;4985895;28;19961;-80
2023/04/15 04:35:45;;;;;;;;;;;;;;;5.98;85.28;97966.19;4986180;28;19933;-80
2023/04/15 04:38:10;;;;;;;;;;;;;;;6.04;84.90;97961.81;4988890;28;19925;-80
2023/04/15 04:40:36;;;;;;;;;;;;;;;6.26;84.47;97962.69;4991073;28;19948;-81
2023/04/15 04:43:01;;;;;;;;;;;;;;;6.94;81.80;97954.34;4986797;28;19922;-81
2023/04/15 04:45:26;;;;;;;;;;;;;;;6.69;82.09;97951.34;4990585;28;19933;-81
2023/04/15 04:47:51;;;;;;;;;;;;;;;6.76;81.81;97950.13;4985573;28;19929;-80
2023/04/15 04:50:17;;;;;;;;;;;;;;;7.07;81.06;97950.50;4987786;28;20012;-81
2023/04/15 04:52:42;;;;;;;;;;;;;;;7.01;81.38;97954.16;4987854;28;20385;-81
2023/04/15 04:55:07;;;;;;;;;;;;;;;7.37;80.57;97956.16;4989296;28;20390;-80
2023/04/15 04:57:34;;;;;;;;;;;;;;;7.34;80.53;97953.97;4990258;28;20321;-80
2023/04/15 05:00:00;;;;;;;;;;;;;;;7.37;80.26;97951.66;4988655;28;19929;-80
2023/04/15 05:02:26;;;;;;;;;;;;;;;7.40;80.03;97953.78;4985649;28;19918;-80
2023/04/15 05:04:53;;;;;;;;;;;;;;;7.35;80.88;97948.44;4989360;28;20017;-80
2023/04/15 05:07:19;;;;;;;;;;;;;;;7.13;81.28;97954.81;4985893;28;19922;-80
2023/04/15 05:09:45;;;;;;;;;;;;;;;7.10;82.39;97950.78;4989234;28;20395;-80
2023/04/15 05:12:13;;;;;;;;;;;;;;;7.29;80.92;97952.09;4986583;28;19926;-80
2023/04/15 05:14:39;;;;;;;;;;;;;;;7.18;81.59;97941.59;4987862;28;19930;-80
2023/04/15 05:17:04;;;;;;;;;;;;;;;7.25;82.07;97952.84;4987813;28;19930;-80
2023/04/15 05:19:29;;;;;;;;;;;;;;;7.10;82.41;97950.78;4988790;28;19957;-80
2023/04/15 05:21:55;;;;;;;;;;;;;;;6.91;82.53;97951.34;4990425;28;19922;-81
2023/04/15 05:24:21;;;;;;;;;;;;;;;7.17;81.82;97948.75;4985429;28;19956;-80
2023/04/15 05:26:46;;;;;;;;;;;;;;;7.02;83.01;97953.09;4989631;28;20401;-81
2023/04/15 05:29:11;;;;;;;;;;;;;;;6.84;83.54;97956.06;4990888;28;19922;-80
2023/04/15 05:31:37;;;;;;;;;;;;;;;6.82;83.90;97958.94;4987275;28;19936;-80
2023/04/15 05:34:02;;;;;;;;;;;;;;;6.75;84.30;97963.63;4987121;28;19925;-80
2023/04/15 05:36:27;;;;;;;;;;;;;;;6.65;84.46;97958.19;4987944;28;19984;-80
2023/04/15 05:38:53;;;;;;;;;;;;;;;6.23;85.84;97965.78;4970163;28;19930;-80
2023/04/15 05:41:18;;;;;;;;;;;;;;;6.61;85.21;97962.38;4980626;28;19925;-80
2023/04/15 05:43:43;;;;;;;;;;;;;;;6.97;84.10;97955.69;4987001;28;19961;-80
2023/04/15 05:46:09;;;;;;;;;;;;;;;6.81;83.70;97957.34;4989827;28;19933;-80
2023/04/15 05:48:34;;;;;;;;;;;;;;;6.95;83.23;97963.88;4969786;28;19928;-80
2023/04/15 05:51:00;;;;;;;;;;;;;;;7.14;82.98;97965.16;4986135;28;19925;-81
2023/04/15 05:53:25;;;;;;;;;;;;;;;6.60;85.27;97968.72;4984321;28;20021;-81
2023/04/15 05:55:50;;;;;;;;;;;;;;;6.65;85.26;97963.50;4987440;28;20011;-81
2023/04/15 05:58:15;;;;;;;;;;;;;;;6.53;85.84;97957.50;4986311;28;20389;-80
2023/04/15 06:00:41;;;;;;;;;;;;;;;6.26;87.00;97969.81;4984720;28;19988;-81
2023/04/15 06:03:06;;;;;;;;;;;;;;;6.55;85.45;97973.97;4968658;28;19926;-81
2023/04/15 06:05:32;;;;;;;;;;;;;;;6.56;86.23;97972.91;4986480;28;19930;-81
2023/04/15 06:07:57;;;;;;;;;;;;;;;6.87;84.46;97968.81;4982751;28;20333;-80
2023/04/15 06:10:22;;;;;;;;;;;;;;;6.88;84.94;97976.50;4985503;28;19968;-81
2023/04/15 06:12:48;;;;;;;;;;;;;;;7.11;83.59;97981.59;4983698;28;19922;-81
2023/04/15 06:15:13;;;;;;;;;;;;;;;7.31;83.15;97981.03;4982865;28;19964;-81
2023/04/15 06:17:38;;;;;;;;;;;;;;;7.15;83.24;97973.94;4980872;28;19929;-81
2023/04/15 06:20:04;;;;;;;;;;;;;;;6.87;85.24;97979.44;4983011;28;19925;-81
2023/04/15 06:22:29;;;;;;;;;;;;;;;7.29;83.58;97975.19;4975077;28;19929;-80
2023/04/15 06:24:55;;;;;;;;;;;;;;;7.37;82.61;97967.56;4992558;28;19917;-81
2023/04/15 06:27:20;;;;;;;;;;;;;;;7.61;81.47;97984.00;4985597;28;19921;-80
2023/04/15 06:29:45;;;;;;;;;;;;;;;7.62;81.50;97982.97;4967454;28;19922;-80
2023/04/15 06:32:11;;;;;;;;;;;;;;;7.54;82.51;97986.88;4983664;28;19929;-80
2023/04/15 06:34:36;;;;;;;;;;;;;;;7.53;82.39;97985.25;4987569;28;20453;-81
2023/04/15 06:37:01;;;;;;;;;;;;;;;7.46;83.40;97984.66;4986806;28;20298;-81
2023/04/15 06:39:26;;;;;;;;;;;;;;;7.53;82.61;97981.81;4986258;28;19921;-81
2023/04/15 06:41:52;;;;;;;;;;;;;;;7.48;82.91;97990.53;4983308;28;19955;-80
2023/04/15 06:44:17;;;;;;;;;;;;;;;7.34;83.20;97977.88;4984763;28;19933;-80
2023/04/15 06:46:42;;;;;;;;;;;;;;;7.39;82.95;97969.97;4968993;28;19936;-80
2023/04/15 06:49:08;;;;;;;;;;;;;;;7.54;83.41;97970.94;4961381;28;20005;-80
2023/04/15 06:51:34;;;;;;;;;;;;;;;7.51;82.52;97976.72;4984625;28;19926;-80
2023/04/15 06:53:59;;;;;;;;;;;;;;;7.42;83.24;97974.78;4986454;28;20004;-80
2023/04/15 06:56:24;;;;;;;;;;;;;;;7.38;84.37;97979.00;4985457;28;20020;-80
2023/04/15 06:58:50;;;;;;;;;;;;;;;7.45;83.15;97977.72;4971741;28;19929;-80
2023/04/15 07:01:15;;;;;;;;;;;;;;;7.28;84.51;97973.56;4982512;28;19980;-81
2023/04/15 07:03:40;;;;;;;;;;;;;;;7.02;85.47;97961.84;4984375;28;20509;-80
2023/04/15 07:06:06;;;;;;;;;;;;;;;7.20;84.92;97966.03;4988807;28;20534;-80
2023/04/15 07:08:32;;;;;;;;;;;;;;;7.31;84.62;97963.25;4987789;28;19925;-80
2023/04/15 07:10:58;;;;;;;;;;;;;;;7.46;84.07;97966.06;4973439;28;19936;-80
2023/04/15 07:13:23;;;;;;;;;;;;;;;6.98;86.56;97971.34;4964790;28;19926;-80
2023/04/15 07:15:49;;;;;;;;;;;;;;;6.82;86.76;97977.50;4987694;28;20052;-80
2023/04/15 07:18:14;;;;;;;;;;;;;;;7.25;85.12;97974.84;4986667;28;19934;-80
2023/04/15 07:20:40;;;;;;;;;;;;;;;7.21;85.47;97976.41;4969949;28;19925;-80
2023/04/15 07:23:05;;;;;;;;;;;;;;;7.25;86.06;97977.50;4989706;28;19946;-80
2023/04/15 07:25:30;;;;;;;;;;;;;;;6.92;86.47;97977.66;4989222;28;20381;-80
2023/04/15 07:27:55;;;;;;;;;;;;;;;7.25;85.55;97977.50;4973890;28;20416;-81
2023/04/15 07:30:21;;;;;;;;;;;;;;;7.40;84.70;97977.66;4988104;28;19977;-80
2023/04/15 07:32:46;;;;;;;;;;;;;;;7.36;85.06;97968.59;4971284;28;19925;-80
2023/04/15 07:35:12;;;;;;;;;;;;;;;7.50;84.19;97971.69;4971406;28;19996;-80
2023/04/15 07:37:37;;;;;;;;;;;;;;;7.16;86.38;97976.38;4973671;28;19937;-80
2023/04/15 07:40:08;;;;;;;;;;;;;;;7.20;85.53;97972.16;5002274;28;20378;-80
2023/04/15 07:42:33;;;;;;;;;;;;;;;7.44;84.56;97968.19;4969616;28;19941;-80
2023/04/15 07:44:58;;;;;;;;;;;;;;;7.36;85.92;97973.13;4991277;28;20378;-80
2023/04/15 07:47:24;;;;;;;;;;;;;;;7.17;85.73;97971.84;4989412;28;19976;-80
2023/04/15 07:49:50;;;;;;;;;;;;;;;7.00;87.33;97977.22;4987407;28;19929;-80
2023/04/15 07:52:15;;;;;;;;;;;;;;;7.21;85.87;97978.25;4983513;28;19987;-80
2023/04/15 07:54:40;;;;;;;;;;;;;;;6.92;87.83;97982.16;4983955;28;19968;-81
2023/04/15 07:57:06;;;;;;;;;;;;;;;6.91;88.04;97978.69;4969257;28;19926;-79
2023/04/15 07:59:32;;;;;;;;;;;;;;;6.93;88.38;97975.78;4981904;28;20325;-80
2023/04/15 08:01:58;;;;;;;;;;;;;;;6.40;89.55;97985.13;4994882;28;20290;-80
2023/04/15 08:04:23;;;;;;;;;;;;;;;6.60;89.30;97977.47;4989533;28;19957;-80
2023/04/15 08:06:49;;;;;;;;;;;;;;;6.71;89.64;97984.53;4986879;28;19917;-80
2023/04/15 08:09:14;;;;;;;;;;;;;;;6.90;88.85;97993.00;4973734;28;19933;-80
2023/04/15 08:11:40;;;;;;;;;;;;;;;6.73;88.62;97990.38;4985733;28;19937;-81
2023/04/15 08:14:05;;;;;;;;;;;;;;;6.66;88.88;98000.34;4989045;28;20357;-81
2023/04/15 08:16:31;;;;;;;;;;;;;;;6.71;89.51;97996.97;4991224;28;19929;-80
2023/04/15 08:18:56;;;;;;;;;;;;;;;6.86;88.60;98001.72;4990387;28;20029;-80
2023/04/15 08:21:22;;;;;;;;;;;;;;;7.07;87.55;97999.06;4983889;28;20702;-80
2023/04/15 08:23:51;;;;;;;;;;;;;;;7.16;86.88;98002.91;4986375;28;19996;-80
2023/04/15 08:26:17;;;;;;;;;;;;;;;7.26;85.81;97997.69;4988694;28;19976;-80
2023/04/15 08:28:43;;;;;;;;;;;;;;;6.73;89.52;97997.53;4991284;28;21883;-80
2023/04/15 08:31:08;;;;;;;;;;;;;;;6.55;90.73;97995.19;4971300;28;20004;-80
2023/04/15 08:33:34;;;;;;;;;;;;;;;6.85;89.67;97995.59;4985063;28;20033;-80
2023/04/15 08:35:59;;;;;;;;;;;;;;;6.55;90.32;98003.13;4989705;28;19913;-80
2023/04/15 08:38:24;;;;;;;;;;;;;;;6.35;91.85;98008.13;4984461;28;19934;-80
2023/04/15 08:40:50;;;;;;;;;;;;;;;6.78;90.21;98014.34;4987813;28;19922;-80
2023/04/15 08:43:25;;;;;;;;;;;;;;;6.64;91.15;98018.38;4990261;28;19918;-80
2023/04/15 08:45:51;;;;;;;;;;;;;;;6.34;92.04;98003.84;4974857;28;19961;-80
2023/04/15 08:48:17;;;;;;;;;;;;;;;6.84;89.75;98011.75;4987249;28;19918;-80
2023/04/15 08:50:43;;;;;;;;;;;;;;;6.45;91.27;98017.03;4993487;28;19918;-80
2023/04/15 08:53:09;;;;;;;;;;;;;;;6.91;89.53;98015.81;4988902;28;19925;-80
2023/04/15 08:55:35;;;;;;;;;;;;;;;7.32;87.12;98009.16;4987476;28;19929;-80
2023/04/15 08:58:01;;;;;;;;;;;;;;;7.51;86.07;98008.59;4985902;28;19928;-80
2023/04/15 09:00:30;;;;;;;;;;;;;;;7.60;84.96;98002.84;4985929;28;19956;-80
2023/04/15 09:02:55;;;;;;;;;;;;;;;7.49;85.55;97997.41;4984815;28;19926;-80
2023/04/15 09:05:21;;;;;;;;;;;;;;;7.71;84.44;97996.59;4987248;28;19925;-80
2023/04/15 09:07:47;;;;;;;;;;;;;;;7.69;83.34;97996.06;4989707;28;19937;-80
2023/04/15 09:10:12;;;;;;;;;;;;;;;7.74;83.81;98002.19;4972557;28;19930;-80
2023/04/15 09:12:38;;;;;;;;;;;;;;;7.51;84.78;98016.56;4988134;28;20293;-80
2023/04/15 09:15:03;;;;;;;;;;;;;;;7.56;85.27;98013.16;4989344;28;19960;-80
2023/04/15 09:17:31;;;;;;;;;;;;;;;7.09;87.80;98023.50;4987692;28;19992;-80
2023/04/15 09:20:07;;;;;;;;;;;;;;;7.42;86.47;98018.06;4995978;28;19972;-81
2023/04/15 09:22:32;;;;;;;;;;;;;;;7.06;87.89;98025.81;4986232;28;19922;-80
2023/04/15 09:24:57;;;;;;;;;;;;;;;6.88;88.55;98034.88;4990907;28;19989;-80
2023/04/15 09:27:22;;;;;;;;;;;;;;;6.97;89.02;98030.75;4979357;28;20002;-80
2023/04/15 09:29:49;;;;;;;;;;;;;;;7.05;88.92;98030.34;4983479;28;20392;-80
2023/04/15 09:32:15;;;;;;;;;;;;;;;7.29;86.60;98034.38;4981429;28;20329;-80
2023/04/15 09:34:40;;;;;;;;;;;;;;;7.41;86.00;98021.75;4982749;28;19970;-80
2023/04/15 09:37:06;;;;;;;;;;;;;;;7.19;87.59;98031.56;4985196;28;19929;-80
2023/04/15 09:39:51;;;;;;;;;;;;;;;7.13;88.47;98039.72;4981740;28;19977;-80
2023/04/15 09:42:23;;;;;;;;;;;;;;;7.36;86.52;98029.66;4982346;28;19933;-80
2023/04/15 09:44:48;;;;;;;;;;;;;;;7.07;87.93;98035.41;4981023;28;19955;-80
2023/04/15 09:47:30;;;;;;;;;;;;;;;7.45;86.39;98032.69;4978791;28;19926;-80
2023/04/15 09:49:56;;;;;;;;;;;;;;;7.33;86.80;98035.47;4977974;28;19919;-80
2023/04/15 09:52:21;;;;;;;;;;;;;;;7.28;87.97;98045.22;4986402;28;20444;-79
2023/04/15 09:54:46;;;;;;;;;;;;;;;7.00;88.35;98032.94;4987106;28;19926;-80
2023/04/15 09:57:12;;;;;;;;;;;;;;;6.89;90.05;98041.78;4981369;28;19926;-80
2023/04/15 09:59:37;;;;;;;;;;;;;;;7.09;88.96;98044.72;4990430;28;19938;-80
2023/04/15 10:02:04;;;;;;;;;;;;;;;7.39;87.62;98042.44;4981219;28;20452;-82
2023/04/15 10:04:29;;;;;;;;;;;;;;;7.35;87.85;98049.31;4982099;28;19928;-81
2023/04/15 10:06:55;;;;;;;;;;;;;;;7.57;86.30;98043.97;4963812;28;20409;-81
2023/04/15 10:09:21;;;;;;;;;;;;;;;6.54;89.65;98046.56;4981086;28;20189;-81
2023/04/15 10:11:48;;;;;;;;;;;;;;;6.79;90.33;98058.34;4981983;28;20004;-81
2023/04/15 10:14:14;;;;;;;;;;;;;;;6.81;91.02;98058.91;4980944;28;19948;-81
2023/04/15 10:16:41;;;;;;;;;;;;;;;6.73;90.60;98061.19;4978445;28;20452;-81
2023/04/15 10:19:08;;;;;;;;;;;;;;;7.06;88.68;98057.66;4980896;28;19949;-81
2023/04/15 10:21:34;;;;;;;;;;;;;;;7.32;87.08;98054.28;4986993;28;20264;-81
2023/04/15 10:24:00;;;;;;;;;;;;;;;7.26;87.61;98061.41;4966693;28;19933;-82
2023/04/15 10:26:26;;;;;;;;;;;;;;;6.98;88.23;98058.09;4989408;28;19930;-82
2023/04/15 10:28:52;;;;;;;;;;;;;;;7.15;88.52;98049.03;4989720;28;19921;-81
2023/04/15 10:31:18;;;;;;;;;;;;;;;7.11;88.45;98050.59;4973889;28;19929;-81
2023/04/15 10:33:44;;;;;;;;;;;;;;;7.41;87.18;98053.63;4986988;28;20373;-81
2023/04/15 10:36:10;;;;;;;;;;;;;;;6.80;89.65;98057.31;4993986;28;19936;-81
2023/04/15 10:38:40;;;;;;;;;;;;;;;7.39;87.98;98061.03;4991589;28;19930;-81
2023/04/15 10:41:18;;;;;;;;;;;;;;;7.17;87.95;98068.16;4989907;28;20270;-81
2023/04/15 10:43:59;;;;;;;;;;;;;;;7.02;88.79;98065.31;4995948;28;19918;-81
2023/04/15 10:46:38;;;;;;;;;;;;;;;7.22;87.63;98064.78;4986748;28;19926;-81
2023/04/15 10:49:09;;;;;;;;;;;;;;;7.00;89.80;98075.38;4992256;28;19949;-81
2023/04/15 10:51:36;;;;;;;;;;;;;;;6.65;90.52;98080.16;4998576;28;19917;-82
2023/04/15 10:54:01;;;;;;;;;;;;;;;6.51;91.69;98084.19;4999443;28;19917;-81
2023/04/15 10:56:27;;;;;;;;;;;;;;;6.72;90.80;98083.44;4993632;28;19926;-81
2023/04/15 10:58:52;;;;;;;;;;;;;;;6.69;91.80;98094.53;4989732;28;20010;-81
2023/04/15 11:01:24;;;;;;;;;;;;;;;6.98;90.48;98082.78;4967461;28;19926;-80
2023/04/15 11:03:50;;;;;;;;;;;;;;;6.66;90.95;98081.78;5007523;28;19964;-81
2023/04/15 11:06:15;;;;;;;;;;;;;;;6.92;90.99;98088.25;4989546;28;19918;-82
2023/04/15 11:08:54;;;;;;;;;;;;;;;7.09;89.75;98081.88;4990212;28;19940;-81
2023/04/15 11:11:24;;;;;;;;;;;;;;;7.02;90.70;98091.03;4988404;28;20037;-81
2023/04/15 11:13:50;;;;;;;;;;;;;;;6.91;89.74;98083.97;4991506;28;19976;-81
2023/04/15 11:16:15;;;;;;;;;;;;;;;6.95;91.72;98098.34;4970181;28;20330;-81
2023/04/15 11:18:44;;;;;;;;;;;;;;;7.08;90.30;98093.53;4985378;28;20037;-81
2023/04/15 11:21:10;;;;;;;;;;;;;;;7.15;90.89;98098.66;4981690;28;20004;-81
2023/04/15 11:23:36;;;;;;;;;;;;;;;6.81;91.45;98113.81;4989495;28;19922;-81
2023/04/15 11:26:04;;;;;;;;;;;;;;;7.10;90.65;98114.53;4989418;28;20016;-81
2023/04/15 11:28:30;;;;;;;;;;;;;;;7.12;90.17;98104.47;4982924;28;19941;-81
2023/04/15 11:30:55;;;;;;;;;;;;;;;6.71;92.54;98114.47;4987101;28;20255;-81
2023/04/15 11:33:21;;;;;;;;;;;;;;;6.63;93.70;98114.06;4993139;28;21518;-81
2023/04/15 11:35:46;;;;;;;;;;;;;;;6.89;93.81;98115.25;4982457;28;20345;-81
2023/04/15 11:38:12;;;;;;;;;;;;;;;7.05;92.58;98112.59;4985102;28;19929;-81
2023/04/15 11:40:38;;;;;;;;;;;;;;;6.77;93.28;98120.66;4976169;28;20301;-81
2023/04/15 11:43:04;;;;;;;;;;;;;;;6.92;92.13;98120.91;4993763;28;19932;-81
2023/04/15 11:45:29;;;;;;;;;;;;;;;6.95;94.51;98117.75;4991229;28;19924;-82
2023/04/15 11:48:03;;;;;;;;;;;;;;;7.26;92.59;98116.31;4977994;28;19925;-82
2023/04/15 11:50:28;;;;;;;;;;;;;;;6.75;93.52;98130.69;4990329;28;19918;-81
2023/04/15 11:52:58;;;;;;;;;;;;;;;7.18;92.16;98122.88;4995115;28;19922;-80
2023/04/15 11:55:24;;;;;;;;;;;;;;;7.13;92.15;98125.44;4994178;28;19993;-81
2023/04/15 11:57:50;;;;;;;;;;;;;;;7.18;91.88;98117.56;4991629;28;19930;-81
2023/04/15 12:00:16;;;;;;;;;;;;;;;6.79;93.99;98134.47;4977851;28;20348;-81
2023/04/15 12:02:42;;;;;;;;;;;;;;;7.15;93.82;98123.34;4990824;28;19925;-80
2023/04/15 12:05:08;;;;;;;;;;;;;;;6.87;94.65;98125.31;4986394;28;19922;-80
2023/04/15 12:07:33;;;;;;;;;;;;;;;7.13;93.56;98127.28;4985967;28;19928;-80
2023/04/15 12:09:58;;;;;;;;;;;;;;;7.09;93.24;98129.63;4987638;28;21482;-81
2023/04/15 12:12:27;;;;;;;;;;;;;;;6.84;93.92;98133.75;4989525;28;19929;-81
2023/04/15 12:14:55;;;;;;;;;;;;;;;6.92;94.75;98139.47;4990167;28;20412;-81
2023/04/15 12:17:21;;;;;;;;;;;;;;;6.91;95.17;98142.34;4986573;28;19941;-81
2023/04/15 12:19:48;;;;;;;;;;;;;;;6.86;94.93;98137.75;4992200;28;19914;-81
2023/04/15 12:22:15;;;;;;;;;;;;;;;6.88;94.94;98153.44;4993404;28;19921;-81
2023/04/15 12:24:43;;;;;;;;;;;;;;;7.05;95.68;98152.41;4990597;28;19936;-81
2023/04/15 12:27:10;;;;;;;;;;;;;;;6.92;94.38;98154.56;4990436;28;19917;-81
2023/04/15 12:29:35;;;;;;;;;;;;;;;6.95;95.52;98154.88;4991023;28;19925;-81
2023/04/15 12:32:30;;;;;;;;;;;;;;;6.99;94.38;98165.81;4993708;28;20032;-81
2023/04/15 12:34:55;;;;;;;;;;;;;;;6.73;95.61;98161.94;4974505;28;19929;-81
2023/04/15 12:37:21;;;;;;;;;;;;;;;6.78;95.13;98170.81;4989437;28;20378;-82
2023/04/15 12:39:47;;;;;;;;;;;;;;;6.81;96.68;98169.53;4986255;28;19924;-81
2023/04/15 12:42:13;;;;;;;;;;;;;;;6.98;95.94;98172.97;4986161;28;20357;-81
2023/04/15 12:44:39;;;;;;;;;;;;;;;6.98;96.65;98177.47;4969203;28;19971;-81
2023/04/15 12:47:05;;;;;;;;;;;;;;;7.03;96.18;98185.50;4990425;28;20408;-81
2023/04/15 12:49:31;;;;;;;;;;;;;;;6.75;96.28;98186.38;4987380;28;19918;-81
2023/04/15 12:51:59;;;;;;;;;;;;;;;7.19;95.29;98190.81;4987784;28;20553;-81